Time;durP1;ratioP1;P1;durP2;ratioP2;P2;SDS_P1;SDS_P2;PMS_P1;PMS_P2;Temp;Humidity;BMP_temperature;BMP_pressure;BME280_temperature;BME280_humidity;BME280_pressure;Samples;Min_cycle;Max_cycle;Signal;HPM_P1;HPM_P2
2023/07/18 00:00:33;;;;;;;12.60;5.13;;;;;;;26.29;42.53;100258.16;126571;1086;102311;-77
2023/07/18 00:03:21;;;;;;;10.10;5.00;;;;;;;26.26;42.39;100248.38;126680;1086;104264;-77
2023/07/18 00:05:50;;;;;;;7.23;4.60;;;;;;;26.23;42.47;100252.98;126564;1086;104207;-77
2023/07/18 00:08:18;;;;;;;14.57;4.73;;;;;;;26.17;43.09;100244.17;126550;1086;101921;-77
2023/07/18 00:10:47;;;;;;;11.93;4.70;;;;;;;26.13;42.61;100242.53;126508;1086;107929;-76
2023/07/18 00:13:15;;;;;;;13.73;5.00;;;;;;;26.10;43.06;100242.63;126595;1086;104158;-77
2023/07/18 00:15:46;;;;;;;9.87;4.80;;;;;;;26.05;43.34;100238.33;126584;1086;104152;-76
2023/07/18 00:18:15;;;;;;;11.57;5.17;;;;;;;26.03;43.19;100238.38;126566;1086;104149;-77
2023/07/18 00:20:43;;;;;;;9.83;4.80;;;;;;;26.02;43.06;100228.53;126558;1086;104179;-76
2023/07/18 00:23:13;;;;;;;9.33;4.60;;;;;;;26.00;43.46;100225.03;126526;1086;104156;-77
2023/07/18 00:25:42;;;;;;;10.13;5.17;;;;;;;25.99;42.95;100224.16;126562;1086;101951;-77
2023/07/18 00:28:11;;;;;;;10.30;5.03;;;;;;;25.96;43.25;100221.54;126498;1086;101845;-76
2023/07/18 00:30:39;;;;;;;12.63;5.00;;;;;;;25.95;43.63;100229.66;126526;1086;101813;-76
2023/07/18 00:33:09;;;;;;;9.50;4.73;;;;;;;25.92;43.28;100227.93;126525;1086;104247;-76
2023/07/18 00:35:38;;;;;;;9.37;4.87;;;;;;;25.94;43.31;100230.57;126512;1085;104171;-76
2023/07/18 00:38:06;;;;;;;7.27;4.50;;;;;;;25.96;43.49;100226.02;126571;1086;104075;-76
2023/07/18 00:40:36;;;;;;;10.97;5.03;;;;;;;25.97;43.12;100231.38;126496;1086;104718;-76
2023/07/18 00:43:12;;;;;;;9.77;4.53;;;;;;;25.98;43.49;100226.90;126625;1086;104174;-77
2023/07/18 00:45:41;;;;;;;11.57;5.23;;;;;;;25.97;43.69;100226.00;126636;1086;102031;-77
2023/07/18 00:48:11;;;;;;;10.37;5.30;;;;;;;26.01;43.63;100226.80;126642;1086;101868;-76
2023/07/18 00:50:40;;;;;;;11.93;5.57;;;;;;;26.00;43.57;100220.52;126593;1086;104025;-76
2023/07/18 00:53:09;;;;;;;9.97;4.47;;;;;;;26.02;43.80;100217.78;126521;1086;104235;-76
2023/07/18 00:55:39;;;;;;;8.93;4.43;;;;;;;25.99;43.79;100212.51;126565;1086;104149;-76
2023/07/18 00:58:08;;;;;;;9.33;5.20;;;;;;;25.92;43.52;100211.80;126635;1086;104206;-77
2023/07/18 01:00:38;;;;;;;8.37;4.80;;;;;;;25.89;43.57;100217.28;126506;1086;103731;-76
2023/07/18 01:03:06;;;;;;;10.47;4.83;;;;;;;25.86;44.18;100213.82;126496;1086;104155;-76
2023/07/18 01:05:37;;;;;;;9.83;4.93;;;;;;;25.83;43.92;100212.09;126482;1086;102094;-75
2023/07/18 01:08:06;;;;;;;10.63;4.93;;;;;;;25.80;44.11;100207.73;126580;1086;101800;-76
2023/07/18 01:10:35;;;;;;;8.87;4.73;;;;;;;25.77;43.81;100205.13;126543;1086;101851;-76
2023/07/18 01:13:03;;;;;;;10.67;4.97;;;;;;;25.75;43.80;100190.84;126572;1086;104421;-76
2023/07/18 01:15:33;;;;;;;11.07;4.80;;;;;;;25.80;44.21;100196.08;126631;1085;101867;-77
2023/07/18 01:18:02;;;;;;;13.93;4.93;;;;;;;25.79;44.10;100195.20;126539;1086;104184;-76
2023/07/18 01:20:33;;;;;;;13.57;5.07;;;;;;;25.77;43.86;100194.38;126593;1086;104165;-77
2023/07/18 01:23:03;;;;;;;8.53;4.73;;;;;;;25.76;43.93;100195.30;126552;1086;102740;-76
2023/07/18 01:25:33;;;;;;;8.53;4.73;;;;;;;25.74;44.06;100191.80;126595;1086;104168;-76
2023/07/18 01:28:03;;;;;;;10.35;5.05;;;;;;;25.71;43.72;100181.14;126590;1086;104261;-77
2023/07/18 01:30:31;;;;;;;11.20;4.33;;;;;;;25.68;44.14;100186.62;126511;1086;104255;-76
2023/07/18 01:33:00;;;;;;;9.85;4.90;;;;;;;25.68;43.91;100181.24;126610;1086;101880;-76
2023/07/18 01:35:29;;;;;;;11.63;5.13;;;;;;;25.69;44.30;100171.36;126558;1086;101886;-76
2023/07/18 01:37:58;;;;;;;11.87;4.93;;;;;;;25.69;44.39;100171.36;126593;1086;104175;-76
2023/07/18 01:40:27;;;;;;;6.67;4.70;;;;;;;25.68;44.01;100170.49;126559;1086;104162;-76
2023/07/18 01:42:58;;;;;;;11.03;4.83;;;;;;;25.67;43.88;100168.73;126567;1086;101800;-77
2023/07/18 01:45:28;;;;;;;7.47;4.27;;;;;;;25.69;44.40;100171.36;126525;1086;104190;-76
2023/07/18 01:47:57;;;;;;;9.85;4.90;;;;;;;25.68;44.47;100165.13;126614;1086;104251;-76
2023/07/18 01:50:25;;;;;;;9.37;4.47;;;;;;;25.68;44.11;100162.44;126522;1086;103429;-76
2023/07/18 01:52:54;;;;;;;8.37;4.63;;;;;;;25.67;44.14;100168.73;126468;1086;104161;-76
2023/07/18 01:55:23;;;;;;;21.33;5.00;;;;;;;25.66;44.25;100166.95;126551;1086;104171;-76
2023/07/18 01:57:51;;;;;;;8.30;4.47;;;;;;;25.66;44.25;100161.58;126541;1086;104639;-76
2023/07/18 02:00:21;;;;;;;12.63;4.57;;;;;;;25.65;44.73;100160.71;126570;1086;104216;-77
2023/07/18 02:02:52;;;;;;;9.43;4.50;;;;;;;25.63;44.42;100148.25;126534;1086;104066;-76
2023/07/18 02:05:22;;;;;;;11.30;5.00;;;;;;;25.65;44.97;100149.09;126637;1086;104184;-76
2023/07/18 02:07:51;;;;;;;10.43;4.93;;;;;;;25.65;44.51;100151.78;126514;1086;104236;-76
2023/07/18 02:10:21;;;;;;;11.70;4.50;;;;;;;25.62;44.62;100141.14;126258;1086;104165;-76
2023/07/18 02:12:51;;;;;;;13.70;5.43;;;;;;;25.60;44.85;100145.66;126631;1086;102207;-77
2023/07/18 02:15:21;;;;;;;15.17;5.03;;;;;;;25.60;44.77;100148.34;126283;1086;104299;-77
2023/07/18 02:17:51;;;;;;;7.83;4.40;;;;;;;25.61;44.97;100152.80;126591;1086;104098;-77
2023/07/18 02:20:19;;;;;;;10.27;4.70;;;;;;;25.60;44.60;100142.97;126600;1086;104235;-77
2023/07/18 02:22:48;;;;;;;11.20;4.50;;;;;;;25.61;44.66;100145.61;126487;1086;104261;-78
2023/07/18 02:25:17;;;;;;;11.23;4.63;;;;;;;25.61;44.63;100153.67;126554;1086;104181;-77
2023/07/18 02:27:46;;;;;;;11.63;4.83;;;;;;;25.63;44.65;100145.56;126524;1085;104155;-77
2023/07/18 02:30:16;;;;;;;10.33;5.00;;;;;;;25.64;44.80;100141.95;126709;1086;104155;-77
2023/07/18 02:32:45;;;;;;;8.73;5.00;;;;;;;25.64;45.11;100140.14;126716;1086;102086;-78
2023/07/18 02:35:18;;;;;;;12.60;5.03;;;;;;;25.66;44.78;100142.78;126804;1086;101912;-77
2023/07/18 02:37:46;;;;;;;9.97;4.97;;;;;;;25.67;45.04;100141.86;126494;1086;104211;-77
2023/07/18 02:40:16;;;;;;;12.97;4.70;;;;;;;25.68;44.99;100142.72;126570;1085;104258;-76
2023/07/18 02:42:44;;;;;;;9.73;4.67;;;;;;;25.70;44.77;100130.14;126558;1086;104082;-76
2023/07/18 02:45:13;;;;;;;7.67;4.33;;;;;;;25.63;44.59;100133.03;126497;1086;101903;-76
2023/07/18 02:47:42;;;;;;;13.43;4.80;;;;;;;25.60;44.91;100140.28;126530;1086;102090;-76
2023/07/18 02:50:11;;;;;;;9.03;4.40;;;;;;;25.60;44.90;100142.97;126510;1085;104204;-76
2023/07/18 02:52:40;;;;;;;8.37;4.47;;;;;;;25.61;45.03;100150.11;126468;1086;104316;-76
2023/07/18 02:55:09;;;;;;;8.15;4.10;;;;;;;25.62;44.56;100146.51;126500;1086;104169;-76
2023/07/18 02:57:38;;;;;;;11.43;5.20;;;;;;;25.62;44.72;100144.69;126528;1086;104155;-77
2023/07/18 03:00:19;;;;;;;10.87;4.73;;;;;;;25.63;44.39;100142.88;126529;1086;104178;-76
2023/07/18 03:02:49;;;;;;;9.60;4.67;;;;;;;25.65;44.80;100149.09;126550;1086;101806;-76
2023/07/18 03:05:19;;;;;;;12.23;4.60;;;;;;;25.65;44.58;100166.09;126196;1086;102215;-77
2023/07/18 03:07:48;;;;;;;9.73;4.40;;;;;;;25.64;44.97;100180.44;126572;1086;102174;-77
2023/07/18 03:10:17;;;;;;;15.33;4.97;;;;;;;25.67;45.36;100184.84;126579;1086;104231;-76
2023/07/18 03:12:46;;;;;;;12.40;4.53;;;;;;;25.63;46.27;100185.86;126526;1086;104155;-75
2023/07/18 03:15:16;;;;;;;14.50;5.20;;;;;;;25.46;47.07;100187.28;126556;1086;104325;-76
2023/07/18 03:17:44;;;;;;;7.73;4.43;;;;;;;25.34;47.23;100203.77;126696;1084;104264;-77
2023/07/18 03:20:17;;;;;;;12.10;5.13;;;;;;;25.19;47.12;100207.75;126590;1086;104292;-77
2023/07/18 03:22:46;;;;;;;12.70;5.30;;;;;;;25.11;47.58;100191.86;126476;1086;104606;-76
2023/07/18 03:25:16;;;;;;;11.47;5.20;;;;;;;25.10;48.23;100191.91;126567;1086;102068;-76
2023/07/18 03:27:44;;;;;;;9.40;4.90;;;;;;;25.09;47.96;100198.22;126502;1086;104232;-76
2023/07/18 03:30:14;;;;;;;7.80;4.53;;;;;;;25.08;48.36;100197.32;126475;1086;104215;-77
2023/07/18 03:32:42;;;;;;;9.87;4.60;;;;;;;25.08;47.92;100200.00;126505;1086;104232;-76
2023/07/18 03:35:14;;;;;;;7.70;4.27;;;;;;;25.07;47.99;100217.05;126531;1086;104187;-76
2023/07/18 03:37:42;;;;;;;10.43;5.30;;;;;;;25.03;48.13;100226.11;126559;1086;104193;-76
2023/07/18 03:40:15;;;;;;;10.13;4.97;;;;;;;25.04;48.07;100217.14;127306;1086;101885;-76
2023/07/18 03:42:45;;;;;;;14.00;4.95;;;;;;;25.03;48.66;100201.08;127100;1086;104152;-76
2023/07/18 03:45:14;;;;;;;7.93;4.70;;;;;;;25.00;48.65;100188.63;127592;1086;104254;-77
2023/07/18 03:47:43;;;;;;;11.83;4.90;;;;;;;25.00;48.52;100188.63;126895;1086;101848;-77
2023/07/18 03:50:14;;;;;;;9.37;4.97;;;;;;;25.00;49.22;100191.30;126537;1086;104197;-76
2023/07/18 03:52:42;;;;;;;14.23;5.70;;;;;;;25.02;49.03;100180.52;126472;1086;104735;-76
2023/07/18 03:55:11;;;;;;;9.40;4.77;;;;;;;25.03;48.83;100177.80;126450;1086;104156;-77
2023/07/18 03:57:40;;;;;;;12.17;4.93;;;;;;;25.03;48.62;100177.80;126776;1086;104225;-80
2023/07/18 04:00:14;;;;;;;15.87;5.10;;;;;;;25.03;49.02;100177.80;127055;1086;101893;-80
2023/07/18 04:02:44;;;;;;;10.57;4.90;;;;;;;25.03;48.92;100168.88;126900;1086;104669;-79
2023/07/18 04:05:13;;;;;;;11.57;5.13;;;;;;;25.03;48.84;100171.56;126885;1086;104274;-80
2023/07/18 04:07:43;;;;;;;9.17;5.13;;;;;;;25.04;49.07;100170.61;126949;1086;104858;-80
2023/07/18 04:10:13;;;;;;;11.37;4.70;;;;;;;25.06;48.86;100185.76;127000;1086;104034;-80
2023/07/18 04:12:42;;;;;;;8.60;4.30;;;;;;;25.07;48.94;100192.90;126974;1086;104177;-79
2023/07/18 04:15:12;;;;;;;10.93;4.47;;;;;;;25.06;49.10;100188.44;126947;1086;104702;-80
2023/07/18 04:17:40;;;;;;;12.37;4.90;;;;;;;25.06;48.72;100188.44;126954;1086;102578;-79
2023/07/18 04:20:10;;;;;;;12.33;4.77;;;;;;;25.07;48.60;100184.84;126903;1086;104305;-79
2023/07/18 04:22:39;;;;;;;12.40;4.93;;;;;;;25.10;48.95;100190.13;126944;1086;104188;-78
2023/07/18 04:25:09;;;;;;;9.60;4.60;;;;;;;25.11;48.68;100188.31;126821;1086;104258;-78
2023/07/18 04:27:37;;;;;;;9.70;4.60;;;;;;;25.12;48.21;100193.63;127016;1086;101981;-79
2023/07/18 04:30:08;;;;;;;9.80;4.83;;;;;;;25.19;48.59;100198.83;126697;1086;101909;-79
2023/07/18 04:32:37;;;;;;;10.77;4.97;;;;;;;25.24;48.69;100202.23;127583;1086;104181;-80
2023/07/18 04:35:06;;;;;;;12.57;4.87;;;;;;;25.32;48.23;100200.23;126927;1086;102029;-78
2023/07/18 04:37:35;;;;;;;10.03;4.33;;;;;;;25.37;48.59;100198.31;126777;1086;104232;-78
2023/07/18 04:40:06;;;;;;;11.63;4.80;;;;;;;25.46;48.10;100192.66;126768;1086;104229;-77
2023/07/18 04:42:34;;;;;;;10.00;5.10;;;;;;;25.56;48.09;100181.62;126787;1086;102054;-78
2023/07/18 04:45:05;;;;;;;11.67;4.87;;;;;;;25.65;48.04;100182.21;126591;1086;104193;-77
2023/07/18 04:47:34;;;;;;;9.93;4.97;;;;;;;25.74;48.33;100183.73;126691;1085;104265;-77
2023/07/18 04:50:03;;;;;;;7.93;4.37;;;;;;;25.80;48.36;100178.16;126691;1086;104165;-77
2023/07/18 04:52:32;;;;;;;10.97;4.40;;;;;;;25.91;47.87;100176.91;126755;1086;102003;-78
2023/07/18 04:55:01;;;;;;;10.17;5.13;;;;;;;26.00;47.92;100171.27;126980;1086;101883;-79
2023/07/18 04:57:29;;;;;;;10.60;4.60;;;;;;;26.05;47.56;100165.73;126883;1086;104199;-80
2023/07/18 04:59:58;;;;;;;9.83;4.70;;;;;;;26.11;47.61;100161.02;126805;1086;104199;-80
2023/07/18 05:02:26;;;;;;;8.67;4.67;;;;;;;26.14;47.47;100176.19;126858;1086;101902;-78
2023/07/18 05:04:56;;;;;;;9.90;4.60;;;;;;;26.14;47.67;100178.88;126740;1086;104371;-77
2023/07/18 05:07:25;;;;;;;10.20;4.97;;;;;;;26.11;47.75;100177.16;126828;1086;101852;-78
2023/07/18 05:09:53;;;;;;;8.17;4.33;;;;;;;26.14;47.34;100176.19;126817;1086;104033;-80
2023/07/18 05:12:22;;;;;;;10.70;4.65;;;;;;;26.21;47.33;100175.05;127158;1086;104267;-79
2023/07/18 05:14:51;;;;;;;13.30;4.83;;;;;;;26.29;47.15;100172.97;127085;1086;102631;-80
2023/07/18 05:17:19;;;;;;;6.63;4.60;;;;;;;26.39;47.49;100178.90;126910;1086;102289;-79
2023/07/18 05:19:48;;;;;;;10.50;5.00;;;;;;;26.52;47.50;100177.55;126810;1086;104172;-78
2023/07/18 05:22:16;;;;;;;10.80;4.80;;;;;;;26.67;47.03;100180.65;126871;1086;102000;-84
2023/07/18 05:24:46;;;;;;;10.93;4.73;;;;;;;26.80;47.22;100173.00;127007;1086;104165;-85
2023/07/18 05:27:14;;;;;;;11.03;4.50;;;;;;;26.93;46.87;100159.95;127233;1086;110825;-82
2023/07/18 05:29:45;;;;;;;11.40;4.80;;;;;;;27.02;46.88;100173.07;127432;1085;102370;-84
2023/07/18 05:32:14;;;;;;;11.70;4.73;;;;;;;27.09;46.80;100178.16;127403;1086;102204;-80
2023/07/18 05:34:43;;;;;;;9.27;4.67;;;;;;;27.16;46.82;100186.02;127332;1086;102196;-80
2023/07/18 05:37:12;;;;;;;13.43;4.97;;;;;;;27.21;47.03;100187.61;127496;1086;102284;-81
2023/07/18 05:39:45;;;;;;;15.10;5.20;;;;;;;27.26;46.66;100182.05;127570;1085;102217;-80
2023/07/18 05:42:15;;;;;;;12.10;5.00;;;;;;;27.30;46.75;100188.18;127541;1086;102359;-78
2023/07/18 05:44:44;;;;;;;8.97;4.70;;;;;;;27.29;46.58;100178.36;127326;1086;102297;-78
2023/07/18 05:47:12;;;;;;;9.60;5.03;;;;;;;27.30;47.45;100182.80;127204;1086;104238;-78
2023/07/18 05:49:41;;;;;;;10.27;5.10;;;;;;;27.30;47.08;100182.80;127522;1086;102181;-78
2023/07/18 05:52:12;;;;;;;9.97;5.00;;;;;;;27.28;46.91;100181.98;127031;1086;102189;-78
2023/07/18 05:54:41;;;;;;;12.67;5.10;;;;;;;27.25;46.86;100177.58;127302;1085;102347;-80
2023/07/18 05:57:10;;;;;;;15.03;5.30;;;;;;;27.27;46.88;100170.34;127534;1086;102189;-81
2023/07/18 05:59:39;;;;;;;12.33;4.90;;;;;;;27.30;46.81;100172.92;127428;1086;104171;-79
2023/07/18 06:02:07;;;;;;;14.53;4.77;;;;;;;27.34;47.19;100168.31;127561;1086;102226;-78
2023/07/18 06:04:37;;;;;;;8.27;4.80;;;;;;;27.37;47.04;100177.14;127361;1086;102112;-79
2023/07/18 06:07:11;;;;;;;9.90;4.87;;;;;;;27.46;46.93;100172.32;127469;1086;102253;-82
2023/07/18 06:09:47;;;;;;;10.30;4.93;;;;;;;27.54;47.14;100167.53;128025;1085;102453;-79
2023/07/18 06:12:16;;;;;;;11.35;5.00;;;;;;;27.61;47.03;100161.83;127379;1086;102073;-85
2023/07/18 06:14:46;;;;;;;13.23;5.10;;;;;;;27.65;47.21;100159.02;127468;1086;102350;-83
2023/07/18 06:17:17;;;;;;;12.73;5.20;;;;;;;27.70;47.14;100165.08;127817;1086;104069;-80
2023/07/18 06:19:46;;;;;;;15.63;5.30;;;;;;;27.75;47.42;100165.77;126961;1086;102347;-79
2023/07/18 06:22:14;;;;;;;9.00;4.93;;;;;;;27.80;47.28;100163.78;126877;1086;104313;-78
2023/07/18 06:24:46;;;;;;;13.63;5.57;;;;;;;27.86;47.54;100160.83;127314;1085;104255;-80
2023/07/18 06:27:17;;;;;;;12.18;5.42;;;;;;;27.88;47.42;100164.33;126768;1085;102050;-76
2023/07/18 06:29:46;;;;;;;11.83;5.73;;;;;;;27.86;47.47;100171.61;126624;1086;104238;-79
2023/07/18 06:32:15;;;;;;;9.77;5.80;;;;;;;27.91;47.83;100168.73;126620;1086;104145;-81
2023/07/18 06:34:44;;;;;;;13.67;5.40;;;;;;;27.95;47.71;100176.63;128376;1085;101768;-82
2023/07/18 06:37:16;;;;;;;10.53;5.57;;;;;;;27.97;47.41;100174.77;127904;1085;101808;-86
2023/07/18 06:39:53;;;;;;;10.77;5.90;;;;;;;28.02;47.51;100162.89;127567;1085;104254;-85
2023/07/18 06:42:33;;;;;;;18.47;5.90;;;;;;;28.08;47.84;100165.33;127572;1086;104197;-82
2023/07/18 06:45:13;;;;;;;10.57;5.60;;;;;;;28.17;47.77;100170.33;127457;1086;104270;-84
2023/07/18 06:47:46;;;;;;;14.47;6.25;;;;;;;28.32;47.91;100163.41;127409;1086;101898;-84
2023/07/18 06:50:18;;;;;;;13.83;5.80;;;;;;;28.42;47.59;100171.98;127039;1086;102071;-83
2023/07/18 06:52:51;;;;;;;13.53;6.23;;;;;;;28.49;47.70;100170.78;127384;1086;101783;-79
2023/07/18 06:55:22;;;;;;;16.77;5.70;;;;;;;28.58;47.93;100173.11;126501;1086;101886;-80
2023/07/18 06:57:51;;;;;;;13.40;6.43;;;;;;;28.68;47.53;100174.43;126831;1086;101968;-79
2023/07/18 07:00:26;;;;;;;9.35;5.40;;;;;;;28.78;47.52;100171.31;126872;1086;104309;-80
2023/07/18 07:02:57;;;;;;;10.17;5.57;;;;;;;28.90;47.75;100170.76;126749;1086;102128;-80
2023/07/18 07:05:26;;;;;;;10.73;5.43;;;;;;;29.03;47.50;100166.56;126653;1085;104248;-78
2023/07/18 07:07:55;;;;;;;12.53;5.40;;;;;;;29.16;47.54;100176.80;126592;1086;102056;-80
2023/07/18 07:10:33;;;;;;;11.03;6.40;;;;;;;29.32;47.64;100166.17;127163;1086;102147;-78
2023/07/18 07:13:02;;;;;;;14.67;5.87;;;;;;;29.45;47.69;100155.64;128896;1083;101925;-78
2023/07/18 07:15:33;;;;;;;10.67;5.90;;;;;;;29.58;47.82;100162.22;126545;1086;104203;-81
2023/07/18 07:18:02;;;;;;;11.17;6.20;;;;;;;29.78;47.55;100160.34;127075;1086;104178;-78
2023/07/18 07:20:34;;;;;;;12.63;6.17;;;;;;;30.00;47.36;100152.09;126351;1086;104318;-76
2023/07/18 07:23:04;;;;;;;11.13;6.20;;;;;;;30.16;47.31;100158.44;126469;1086;104235;-75
2023/07/18 07:25:33;;;;;;;13.63;6.70;;;;;;;30.36;47.09;100156.55;126800;1086;101805;-81
2023/07/18 07:28:11;;;;;;;11.30;6.27;;;;;;;30.49;47.06;100157.67;126599;1086;104153;-76
2023/07/18 07:30:44;;;;;;;11.70;6.63;;;;;;;30.67;46.52;100158.54;126531;1086;104168;-78
2023/07/18 07:33:13;;;;;;;11.23;6.33;;;;;;;30.87;46.48;100159.28;126771;1086;104191;-81
2023/07/18 07:35:43;;;;;;;13.43;6.50;;;;;;;30.98;46.42;100156.92;127511;1086;103641;-82
2023/07/18 07:38:15;;;;;;;12.47;6.33;;;;;;;31.12;46.16;100150.70;126660;1086;104225;-76
2023/07/18 07:40:44;;;;;;;14.63;7.07;;;;;;;31.21;45.97;100154.75;126278;1086;102128;-78
2023/07/18 07:43:18;;;;;;;14.23;6.90;;;;;;;31.37;45.93;100155.66;126673;1086;104257;-81
2023/07/18 07:45:47;;;;;;;17.17;7.43;;;;;;;31.56;45.70;100157.36;126543;1086;104248;-78
2023/07/18 07:48:17;;;;;;;16.80;6.93;;;;;;;31.72;45.50;100155.48;126492;1086;104165;-81
2023/07/18 07:50:48;;;;;;;14.40;7.60;;;;;;;31.86;45.38;100160.97;126505;1086;104178;-80
2023/07/18 07:53:17;;;;;;;13.87;7.10;;;;;;;32.06;44.95;100159.80;126523;1086;102095;-80
2023/07/18 07:55:45;;;;;;;13.07;7.13;;;;;;;32.23;45.13;100147.97;126707;1086;104188;-78
2023/07/18 07:58:15;;;;;;;18.77;7.77;;;;;;;32.38;44.70;100156.14;126458;1086;104243;-79
2023/07/18 08:00:44;;;;;;;15.83;7.73;;;;;;;32.49;44.55;100167.24;126505;1086;104297;-77
2023/07/18 08:03:13;;;;;;;14.47;7.33;;;;;;;32.54;44.37;100158.81;126463;1086;101903;-76
2023/07/18 08:05:43;;;;;;;20.40;8.23;;;;;;;32.60;44.29;100158.44;126428;1086;104146;-80
2023/07/18 08:08:24;;;;;;;15.23;7.33;;;;;;;32.73;44.32;100161.29;127660;1085;101906;-79
2023/07/18 08:10:55;;;;;;;13.67;7.10;;;;;;;32.91;43.98;100154.70;126489;1086;101906;-81
2023/07/18 08:13:29;;;;;;;17.02;8.13;;;;;;;32.98;43.83;100154.32;126694;1086;104156;-81
2023/07/18 08:16:05;;;;;;;17.50;8.17;;;;;;;33.07;43.41;100160.03;127816;1085;104206;-81
2023/07/18 08:18:34;;;;;;;14.30;7.37;;;;;;;32.99;43.09;100156.94;127549;1086;101951;-77
2023/07/18 08:21:05;;;;;;;13.13;7.77;;;;;;;32.99;43.10;100153.33;126487;1086;101899;-80
2023/07/18 08:23:35;;;;;;;16.53;7.63;;;;;;;33.11;43.19;100175.19;126815;1086;102073;-79
2023/07/18 08:26:04;;;;;;;14.53;7.53;;;;;;;33.19;42.90;100162.95;126511;1086;102190;-77
2023/07/18 08:28:36;;;;;;;15.47;8.37;;;;;;;33.10;42.56;100153.53;128373;1085;101948;-78
2023/07/18 08:31:12;;;;;;;12.03;7.47;;;;;;;33.03;42.73;100160.32;126691;1086;104309;-79
2023/07/18 08:33:43;;;;;;;14.30;7.85;;;;;;;32.97;42.69;100156.14;127478;1086;101887;-79
2023/07/18 08:36:11;;;;;;;17.97;7.63;;;;;;;32.98;42.70;100165.19;127163;1086;104293;-79
2023/07/18 08:38:43;;;;;;;13.87;8.00;;;;;;;32.98;42.67;100159.75;126521;1086;104220;-77
2023/07/18 08:41:14;;;;;;;14.60;8.03;;;;;;;33.04;42.92;100159.36;126561;1085;104191;-81
2023/07/18 08:46:22;;;;;;;13.47;7.53;;;;;;;33.07;42.49;100160.03;127164;1086;104181;-78
2023/07/18 08:48:51;;;;;;;12.23;7.67;;;;;;;33.12;42.33;100165.17;126791;1086;104232;-79
2023/07/18 08:51:21;;;;;;;16.93;8.53;;;;;;;33.18;42.50;100166.64;127601;1085;101870;-79
2023/07/18 08:53:50;;;;;;;15.90;7.77;;;;;;;33.23;42.33;100165.38;126461;1086;104244;-76
2023/07/18 08:56:19;;;;;;;14.43;7.60;;;;;;;33.32;42.30;100170.23;126358;1085;104246;-77
2023/07/18 08:58:48;;;;;;;16.10;8.00;;;;;;;33.31;42.33;100175.77;126454;1085;104245;-79
2023/07/18 09:01:20;;;;;;;15.57;7.37;;;;;;;33.24;42.35;100182.55;126668;1086;101851;-82
2023/07/18 09:03:55;;;;;;;15.50;7.90;;;;;;;33.16;42.77;100172.17;126830;1086;102091;-79
2023/07/18 09:06:27;;;;;;;13.30;7.33;;;;;;;33.22;42.82;100182.66;127237;1086;102594;-81
2023/07/18 09:09:01;;;;;;;14.50;7.87;;;;;;;33.00;42.78;100179.54;127625;1086;101758;-83
2023/07/18 09:11:30;;;;;;;11.78;7.05;;;;;;;32.86;42.83;100178.55;126494;1086;104225;-76
2023/07/18 09:14:00;;;;;;;14.67;7.43;;;;;;;32.75;43.03;100170.20;126305;1086;104194;-78
2023/07/18 09:16:33;;;;;;;14.90;7.30;;;;;;;32.68;43.08;100172.44;126413;1086;104194;-77
2023/07/18 09:19:03;;;;;;;13.67;7.20;;;;;;;32.69;43.07;100181.45;126313;1086;102232;-76
2023/07/18 09:21:34;;;;;;;16.50;7.17;;;;;;;32.63;43.27;100185.41;126297;1086;104178;-80
2023/07/18 09:24:04;;;;;;;12.50;7.20;;;;;;;32.63;43.28;100171.83;126520;1086;101819;-77
2023/07/18 09:26:36;;;;;;;12.50;6.97;;;;;;;32.74;43.08;100176.59;126396;1086;104356;-80
2023/07/18 09:29:11;;;;;;;12.13;6.53;;;;;;;32.74;43.11;100174.78;126573;1086;104270;-78
2023/07/18 09:31:40;;;;;;;12.43;7.20;;;;;;;32.71;43.07;100177.69;126294;1086;104286;-78
2023/07/18 09:34:19;;;;;;;13.00;7.10;;;;;;;32.41;43.06;100166.81;126768;1086;104299;-79
2023/07/18 09:36:57;;;;;;;12.87;7.03;;;;;;;32.19;43.67;100180.81;126480;1086;101848;-76
2023/07/18 09:39:27;;;;;;;14.73;6.90;;;;;;;32.17;43.70;100167.33;126343;1086;103535;-77
2023/07/18 09:41:57;;;;;;;11.77;6.80;;;;;;;32.25;43.82;100169.59;126820;1085;102070;-76
2023/07/18 09:44:28;;;;;;;12.33;7.00;;;;;;;32.30;43.91;100178.32;126278;1086;104271;-78
2023/07/18 09:46:56;;;;;;;11.07;7.30;;;;;;;32.35;43.83;100168.08;126482;1086;104191;-79
2023/07/18 09:49:29;;;;;;;14.00;6.73;;;;;;;32.40;44.11;100175.95;127886;1085;101915;-82
2023/07/18 09:52:03;;;;;;;13.00;6.67;;;;;;;32.25;44.23;100173.17;127583;1085;104232;-81
2023/07/18 09:54:36;;;;;;;10.83;6.17;;;;;;;32.25;44.43;100173.17;126794;1086;104173;-81
2023/07/18 09:57:11;;;;;;;13.23;7.07;;;;;;;32.21;44.31;100178.88;127856;1085;103012;-81
2023/07/18 09:59:44;;;;;;;10.37;6.50;;;;;;;32.16;44.43;100173.72;128033;1085;104155;-78
2023/07/18 10:02:16;;;;;;;11.70;6.77;;;;;;;32.18;44.49;100173.63;126982;1086;104290;-79
2023/07/18 10:04:50;;;;;;;14.00;7.10;;;;;;;32.15;44.06;100177.42;126472;1086;104174;-79
2023/07/18 10:07:29;;;;;;;11.07;6.87;;;;;;;32.24;44.13;100176.88;127170;1086;104293;-79
2023/07/18 10:10:05;;;;;;;15.10;6.43;;;;;;;32.13;44.09;100167.61;126763;1086;101932;-79
2023/07/18 10:12:58;;;;;;;14.63;7.30;;;;;;;31.94;44.18;100178.65;126438;1086;104235;-80
2023/07/18 10:15:32;;;;;;;13.30;7.13;;;;;;;31.93;44.73;100177.78;127259;1086;102240;-80
2023/07/18 10:18:27;;;;;;;10.93;6.83;;;;;;;31.84;44.53;100181.03;127460;1086;104204;-80
2023/07/18 10:21:00;;;;;;;12.37;7.27;;;;;;;31.86;44.75;100188.09;127222;1086;104178;-78
2023/07/18 10:23:45;;;;;;;10.27;6.70;;;;;;;31.95;45.06;100191.27;127223;1086;102782;-79
2023/07/18 10:26:16;;;;;;;12.93;6.90;;;;;;;32.08;44.99;100184.13;127699;1086;102438;-80
2023/07/18 10:28:58;;;;;;;11.30;7.20;;;;;;;31.96;44.94;100196.60;127903;1086;102273;-78
2023/07/18 10:31:41;;;;;;;12.33;6.80;;;;;;;31.83;45.19;100201.84;127488;1086;104111;-77
2023/07/18 10:34:13;;;;;;;11.63;7.10;;;;;;;31.92;45.35;100191.44;127583;1086;104159;-78
2023/07/18 10:36:59;;;;;;;11.23;7.30;;;;;;;31.96;45.33;100198.41;126671;1086;104209;-77
2023/07/18 10:39:43;;;;;;;12.07;6.90;;;;;;;31.95;45.25;100199.41;126760;1086;102376;-81
2023/07/18 10:42:29;;;;;;;13.13;7.10;;;;;;;31.92;45.38;100196.87;126709;1086;101842;-83
2023/07/18 10:45:07;;;;;;;18.57;7.23;;;;;;;31.92;45.50;100210.44;126766;1085;111609;-81
2023/07/18 10:47:38;;;;;;;15.23;7.00;;;;;;;31.86;45.55;100214.36;126944;1086;101794;-82
2023/07/18 10:50:13;;;;;;;11.57;6.97;;;;;;;31.80;45.73;100201.16;126894;1086;104168;-81
2023/07/18 10:52:47;;;;;;;11.75;7.20;;;;;;;31.75;45.77;100201.42;127035;1086;101827;-75
2023/07/18 10:55:18;;;;;;;11.40;7.03;;;;;;;31.68;45.96;100205.43;126668;1086;104209;-81
2023/07/18 10:57:49;;;;;;;12.10;7.00;;;;;;;31.70;46.26;100200.81;126545;1085;104153;-76
2023/07/18 11:00:20;;;;;;;;;;;;;;;31.73;46.13;100203.36;126572;1086;104155;-77
2023/07/18 11:02:52;;;;;;;13.30;7.30;;;;;;;31.73;46.16;100195.22;127738;1085;101816;-75
2023/07/18 11:05:21;;;;;;;;;;;;;;;31.70;45.86;100200.81;127972;1086;107928;-77
2023/07/18 11:07:53;;;;;;;13.60;7.30;;;;;;;31.69;46.18;100199.92;127880;1085;101679;-77
2023/07/18 11:10:22;;;;;;;13.10;7.43;;;;;;;31.80;45.91;100201.16;126399;1086;104188;-77
2023/07/18 11:12:53;;;;;;;14.27;7.43;;;;;;;31.73;45.92;100187.08;126335;1086;104144;-77
2023/07/18 11:15:23;;;;;;;;;;;;;;;31.66;45.57;100196.52;127426;1085;104165;-77
2023/07/18 11:17:53;;;;;;;14.10;7.07;;;;;;;31.56;45.52;100189.89;126590;1085;104027;-78
2023/07/18 11:20:23;;;;;;;10.57;7.30;;;;;;;31.68;45.35;100189.16;127769;1084;101902;-79
2023/07/18 11:22:56;;;;;;;15.03;7.53;;;;;;;31.74;45.47;100179.80;127740;1085;104225;-78